Time;durP1;ratioP1;P1;durP2;ratioP2;P2;SDS_P1;SDS_P2;PMS_P1;PMS_P2;Temp;Humidity;BMP_temperature;BMP_pressure;BME280_temperature;BME280_humidity;BME280_pressure;Samples;Min_cycle;Max_cycle;Signal;HPM_P1;HPM_P2
2022/09/05 00:01:15;;;;;;;;;;;25.30;41.60;;;;;;5118211;28;19988;-59
2022/09/05 00:03:44;;;;;;;;;;;25.20;41.60;;;;;;5107967;28;19969;-59
2022/09/05 00:06:10;;;;;;;;;;;25.20;41.60;;;;;;5093892;28;20671;-59
2022/09/05 00:08:51;;;;;;;;;;;25.20;41.60;;;;;;5112399;28;19995;-60
2022/09/05 00:11:36;;;;;;;;;;;25.30;41.60;;;;;;5089023;28;20383;-59
2022/09/05 00:14:02;;;;;;;;;;;25.30;41.50;;;;;;5107042;28;19912;-59
2022/09/05 00:16:30;;;;;;;;;;;25.20;41.60;;;;;;5113235;28;19924;-59
2022/09/05 00:18:55;;;;;;;;;;;25.20;41.60;;;;;;5112351;28;19991;-60
2022/09/05 00:21:24;;;;;;;;;;;25.30;41.60;;;;;;5094504;28;19943;-60
2022/09/05 00:23:53;;;;;;;;;;;25.30;41.60;;;;;;5094481;28;20284;-60
2022/09/05 00:26:21;;;;;;;;;;;25.30;41.60;;;;;;5092722;28;19908;-59
2022/09/05 00:28:49;;;;;;;;;;;25.30;41.60;;;;;;5092717;28;20399;-60
2022/09/05 00:31:33;;;;;;;;;;;25.20;41.50;;;;;;5092816;28;19914;-60
2022/09/05 00:34:08;;;;;;;;;;;25.30;41.60;;;;;;5092768;28;19916;-60
2022/09/05 00:36:43;;;;;;;;;;;25.30;41.60;;;;;;5107059;28;20006;-59
2022/09/05 00:39:19;;;;;;;;;;;25.30;41.60;;;;;;5104206;28;19923;-60
2022/09/05 00:41:48;;;;;;;;;;;25.30;41.70;;;;;;5102217;28;19926;-60
2022/09/05 00:44:13;;;;;;;;;;;25.20;41.60;;;;;;5111613;28;20002;-59
2022/09/05 00:46:43;;;;;;;;;;;25.20;41.70;;;;;;5112817;28;20006;-60
2022/09/05 00:49:20;;;;;;;;;;;25.20;41.70;;;;;;5090009;28;20350;-60
2022/09/05 00:51:48;;;;;;;;;;;25.20;41.70;;;;;;5108979;28;19912;-60
2022/09/05 00:54:23;;;;;;;;;;;25.10;41.80;;;;;;5092579;28;19976;-59
2022/09/05 00:56:57;;;;;;;;;;;25.10;41.80;;;;;;5111931;28;19912;-59
2022/09/05 00:59:22;;;;;;;;;;;25.20;41.80;;;;;;5110841;28;19916;-59
2022/09/05 01:02:11;;;;;;;;;;;25.10;41.80;;;;;;5112556;28;20375;-59
2022/09/05 01:04:39;;;;;;;;;;;25.10;41.90;;;;;;5074009;28;19911;-59
2022/09/05 01:07:14;;;;;;;;;;;25.10;41.90;;;;;;5092418;28;19922;-60
2022/09/05 01:09:49;;;;;;;;;;;25.10;41.90;;;;;;5111659;28;19916;-59
2022/09/05 01:12:31;;;;;;;;;;;25.10;41.90;;;;;;5112420;28;20396;-60
2022/09/05 01:15:02;;;;;;;;;;;25.10;41.80;;;;;;5093386;28;19920;-59
2022/09/05 01:17:36;;;;;;;;;;;25.10;41.80;;;;;;5094151;28;20398;-60
2022/09/05 01:20:10;;;;;;;;;;;25.20;41.80;;;;;;5112404;28;19959;-60
2022/09/05 01:22:52;;;;;;;;;;;25.20;41.80;;;;;;5112122;28;19934;-60
2022/09/05 01:25:33;;;;;;;;;;;25.20;41.90;;;;;;5092904;28;19915;-60
2022/09/05 01:28:07;;;;;;;;;;;25.20;41.80;;;;;;5112389;28;19919;-59
2022/09/05 01:30:49;;;;;;;;;;;25.20;41.80;;;;;;5111017;28;19915;-59
2022/09/05 01:33:24;;;;;;;;;;;25.20;41.80;;;;;;5095231;28;19912;-59
2022/09/05 01:35:52;;;;;;;;;;;25.10;41.80;;;;;;5086778;28;19916;-59
2022/09/05 01:38:31;;;;;;;;;;;25.20;42.00;;;;;;5092503;28;20003;-59
2022/09/05 01:41:05;;;;;;;;;;;25.10;41.80;;;;;;5091365;28;20402;-59
2022/09/05 01:43:53;;;;;;;;;;;25.10;41.90;;;;;;5092308;28;19934;-60
2022/09/05 01:46:25;;;;;;;;;;;25.10;42.10;;;;;;5073772;28;19912;-59
2022/09/05 01:48:56;;;;;;;;;;;25.10;42.20;;;;;;5110062;28;19912;-60
2022/09/05 01:51:28;;;;;;;;;;;25.10;42.10;;;;;;5108573;28;19911;-59
2022/09/05 01:54:12;;;;;;;;;;;25.10;42.10;;;;;;5093343;28;19911;-59
2022/09/05 01:56:37;;;;;;;;;;;25.10;42.10;;;;;;5110433;28;19912;-59
2022/09/05 01:59:15;;;;;;;;;;;25.10;42.10;;;;;;5109898;28;19919;-60
2022/09/05 02:01:40;;;;;;;;;;;25.10;42.10;;;;;;5102953;28;20003;-59
2022/09/05 02:04:06;;;;;;;;;;;25.10;42.10;;;;;;5107850;28;20022;-59
2022/09/05 02:06:39;;;;;;;;;;;25.10;42.10;;;;;;5111469;28;19912;-60
2022/09/05 02:09:08;;;;;;;;;;;25.10;42.10;;;;;;5109363;28;19942;-59
2022/09/05 02:11:38;;;;;;;;;;;25.00;42.20;;;;;;5111099;28;19926;-59
2022/09/05 02:14:07;;;;;;;;;;;25.00;42.30;;;;;;5092663;28;20303;-59
2022/09/05 02:16:36;;;;;;;;;;;25.00;42.20;;;;;;5090085;28;19912;-60
2022/09/05 02:19:15;;;;;;;;;;;25.00;42.20;;;;;;5089912;28;19912;-59
2022/09/05 02:21:47;;;;;;;;;;;25.00;42.20;;;;;;5071870;28;19912;-59
2022/09/05 02:24:12;;;;;;;;;;;25.00;42.20;;;;;;5093451;28;20254;-59
2022/09/05 02:26:41;;;;;;;;;;;25.00;42.30;;;;;;5094304;28;19981;-58
2022/09/05 02:29:17;;;;;;;;;;;25.00;42.30;;;;;;5092843;28;19955;-59
2022/09/05 02:31:45;;;;;;;;;;;25.00;42.30;;;;;;5061834;28;20325;-59
2022/09/05 02:34:10;;;;;;;;;;;25.00;42.20;;;;;;5075043;28;19923;-59
2022/09/05 02:36:42;;;;;;;;;;;25.00;42.30;;;;;;5092432;28;19912;-59
2022/09/05 02:39:12;;;;;;;;;;;25.00;42.30;;;;;;5070979;28;19993;-60
2022/09/05 02:41:46;;;;;;;;;;;25.00;42.20;;;;;;5094837;28;20248;-60
2022/09/05 02:44:20;;;;;;;;;;;25.00;42.30;;;;;;5071087;28;20452;-60
2022/09/05 02:47:01;;;;;;;;;;;25.00;42.20;;;;;;5063552;28;20009;-60
2022/09/05 02:49:30;;;;;;;;;;;25.00;42.20;;;;;;5083355;28;19919;-60
2022/09/05 02:52:14;;;;;;;;;;;25.00;42.20;;;;;;5091850;28;20026;-60
2022/09/05 02:54:41;;;;;;;;;;;25.00;42.20;;;;;;5092540;28;19916;-60
2022/09/05 02:57:19;;;;;;;;;;;24.90;42.20;;;;;;5075265;28;20003;-60
2022/09/05 02:59:44;;;;;;;;;;;24.90;42.40;;;;;;5093451;28;19924;-60
2022/09/05 03:02:25;;;;;;;;;;;24.90;42.50;;;;;;5094218;28;19954;-60
2022/09/05 03:04:53;;;;;;;;;;;24.90;42.40;;;;;;5072740;28;19912;-60
2022/09/05 03:07:38;;;;;;;;;;;24.90;42.30;;;;;;5072719;28;19983;-60
2022/09/05 03:10:22;;;;;;;;;;;24.90;42.30;;;;;;5092111;28;20275;-60
2022/09/05 03:13:11;;;;;;;;;;;24.90;42.20;;;;;;5090604;28;20376;-60
2022/09/05 03:15:55;;;;;;;;;;;24.90;42.30;;;;;;5044382;28;19920;-59
2022/09/05 03:18:39;;;;;;;;;;;24.90;42.20;;;;;;5079428;28;19938;-59
2022/09/05 03:21:19;;;;;;;;;;;24.90;42.30;;;;;;5089036;28;19924;-59
2022/09/05 03:24:00;;;;;;;;;;;24.90;42.30;;;;;;5073343;28;20376;-59
2022/09/05 03:26:44;;;;;;;;;;;24.90;42.40;;;;;;5091964;28;19912;-60
2022/09/05 03:29:17;;;;;;;;;;;24.80;42.40;;;;;;5093611;28;19912;-59
2022/09/05 03:31:58;;;;;;;;;;;24.80;42.50;;;;;;5073709;28;20393;-58
2022/09/05 03:34:32;;;;;;;;;;;24.80;42.50;;;;;;5091269;28;19916;-59
2022/09/05 03:37:12;;;;;;;;;;;24.80;42.40;;;;;;5073469;28;19915;-59
2022/09/05 03:39:56;;;;;;;;;;;24.80;42.40;;;;;;5074742;28;20051;-60
2022/09/05 03:42:40;;;;;;;;;;;24.80;42.50;;;;;;5083209;28;19916;-60
2022/09/05 03:45:25;;;;;;;;;;;24.80;42.50;;;;;;5092333;28;20356;-58
2022/09/05 03:48:10;;;;;;;;;;;24.80;42.30;;;;;;5079378;28;19973;-60
2022/09/05 03:50:57;;;;;;;;;;;24.80;42.30;;;;;;5091915;28;19916;-59
2022/09/05 03:53:41;;;;;;;;;;;24.80;42.30;;;;;;5073316;28;20054;-59
2022/09/05 03:56:16;;;;;;;;;;;24.80;42.30;;;;;;5093032;28;20435;-60
2022/09/05 03:58:54;;;;;;;;;;;24.80;42.30;;;;;;5090495;28;19922;-60
2022/09/05 04:01:26;;;;;;;;;;;24.80;42.30;;;;;;5072506;28;20280;-60
2022/09/05 04:03:53;;;;;;;;;;;24.80;42.20;;;;;;5089759;28;19936;-58
2022/09/05 04:06:28;;;;;;;;;;;24.80;42.30;;;;;;5090553;28;20269;-59
2022/09/05 04:09:00;;;;;;;;;;;24.80;42.20;;;;;;5083923;28;19981;-60
2022/09/05 04:11:58;;;;;;;;;;;24.80;42.20;;;;;;5090424;28;20379;-59
2022/09/05 04:14:42;;;;;;;;;;;24.80;42.20;;;;;;5069395;28;19919;-60
2022/09/05 04:17:26;;;;;;;;;;;24.80;42.20;;;;;;5091470;28;19912;-59
2022/09/05 04:19:54;;;;;;;;;;;24.80;42.10;;;;;;5092631;28;19918;-60
2022/09/05 04:22:27;;;;;;;;;;;24.80;42.20;;;;;;5091104;28;19938;-60
2022/09/05 04:25:13;;;;;;;;;;;24.80;42.20;;;;;;5076134;28;19912;-59
2022/09/05 04:27:39;;;;;;;;;;;24.80;42.20;;;;;;5071356;28;20388;-60
2022/09/05 04:30:19;;;;;;;;;;;24.80;42.20;;;;;;5090731;28;19916;-60
2022/09/05 04:32:45;;;;;;;;;;;24.70;42.10;;;;;;5072847;28;20429;-60
2022/09/05 04:35:10;;;;;;;;;;;24.70;42.30;;;;;;5089319;28;20280;-60
2022/09/05 04:37:38;;;;;;;;;;;24.70;42.30;;;;;;5090405;28;19914;-60
2022/09/05 04:40:22;;;;;;;;;;;24.70;42.10;;;;;;5071939;28;19923;-60
2022/09/05 04:42:48;;;;;;;;;;;24.80;42.20;;;;;;5091128;28;19962;-60
2022/09/05 04:45:13;;;;;;;;;;;24.70;42.10;;;;;;5071195;28;19962;-60
2022/09/05 04:47:40;;;;;;;;;;;24.70;42.10;;;;;;5091482;28;19923;-60
2022/09/05 04:50:07;;;;;;;;;;;24.70;42.20;;;;;;5091359;28;19919;-60
2022/09/05 04:52:35;;;;;;;;;;;24.70;42.30;;;;;;5072772;28;19919;-60
2022/09/05 04:55:01;;;;;;;;;;;24.70;42.20;;;;;;5090721;28;20402;-59
2022/09/05 04:57:30;;;;;;;;;;;24.70;42.10;;;;;;5090526;28;20375;-59
2022/09/05 05:00:10;;;;;;;;;;;24.70;42.10;;;;;;5089105;28;19924;-60
2022/09/05 05:02:46;;;;;;;;;;;24.70;42.10;;;;;;5068584;28;19912;-58
2022/09/05 05:05:21;;;;;;;;;;;24.70;42.20;;;;;;5071670;28;19969;-60
2022/09/05 05:07:56;;;;;;;;;;;24.70;42.20;;;;;;5075558;28;19913;-58
2022/09/05 05:10:33;;;;;;;;;;;24.70;42.20;;;;;;5089682;28;19912;-59
2022/09/05 05:13:09;;;;;;;;;;;24.60;42.20;;;;;;5053689;28;19928;-59
2022/09/05 05:15:36;;;;;;;;;;;24.60;42.20;;;;;;5081073;28;19928;-60
2022/09/05 05:18:04;;;;;;;;;;;24.60;42.20;;;;;;5087404;28;19936;-59
2022/09/05 05:20:48;;;;;;;;;;;24.60;42.10;;;;;;5112089;28;19922;-59
2022/09/05 05:23:15;;;;;;;;;;;24.70;42.20;;;;;;5107334;28;19920;-60
2022/09/05 05:25:50;;;;;;;;;;;24.70;42.20;;;;;;5091732;28;19964;-59
2022/09/05 05:28:19;;;;;;;;;;;24.70;42.10;;;;;;5111834;28;19955;-60
2022/09/05 05:30:44;;;;;;;;;;;24.70;42.10;;;;;;5110686;28;19988;-59
2022/09/05 05:33:14;;;;;;;;;;;24.70;42.20;;;;;;5111258;28;20359;-59
2022/09/05 05:35:40;;;;;;;;;;;24.70;42.20;;;;;;5111121;28;20383;-60
2022/09/05 05:38:05;;;;;;;;;;;24.50;42.20;;;;;;5108319;28;20006;-60
2022/09/05 05:40:31;;;;;;;;;;;24.60;42.30;;;;;;5111452;28;19919;-60
2022/09/05 05:43:12;;;;;;;;;;;24.60;42.20;;;;;;5112242;28;19907;-60
2022/09/05 05:45:38;;;;;;;;;;;24.60;42.30;;;;;;5108608;28;20279;-60
2022/09/05 05:48:04;;;;;;;;;;;24.60;42.30;;;;;;5091021;28;19923;-60
2022/09/05 05:50:33;;;;;;;;;;;24.60;42.30;;;;;;5093551;28;19907;-59
2022/09/05 05:53:18;;;;;;;;;;;24.70;42.30;;;;;;5111595;28;19908;-60
2022/09/05 05:55:52;;;;;;;;;;;24.60;42.40;;;;;;5093260;28;20018;-59
2022/09/05 05:58:31;;;;;;;;;;;24.60;42.40;;;;;;5097190;28;19969;-60
2022/09/05 06:01:02;;;;;;;;;;;24.60;42.50;;;;;;5112682;27;20014;-60
2022/09/05 06:03:47;;;;;;;;;;;24.60;42.40;;;;;;5115028;28;19912;-60
2022/09/05 06:06:15;;;;;;;;;;;24.60;42.50;;;;;;5095673;28;20655;-60
2022/09/05 06:08:43;;;;;;;;;;;24.60;42.50;;;;;;5115274;28;20391;-60
2022/09/05 06:11:23;;;;;;;;;;;24.60;42.50;;;;;;5114091;28;19912;-60
2022/09/05 06:14:07;;;;;;;;;;;24.60;42.50;;;;;;5115599;28;19912;-60
2022/09/05 06:16:51;;;;;;;;;;;24.60;42.50;;;;;;5109796;28;20019;-60
2022/09/05 06:19:32;;;;;;;;;;;24.60;42.40;;;;;;5077338;28;20002;-59
2022/09/05 06:22:16;;;;;;;;;;;24.60;42.60;;;;;;5094903;28;19908;-60
2022/09/05 06:24:41;;;;;;;;;;;24.60;42.70;;;;;;5097610;28;19915;-60
2022/09/05 06:27:12;;;;;;;;;;;24.60;42.70;;;;;;5115506;28;19912;-60
2022/09/05 06:29:41;;;;;;;;;;;24.50;42.70;;;;;;5080067;28;20362;-60
2022/09/05 06:32:12;;;;;;;;;;;24.50;42.70;;;;;;5115011;28;19908;-59
2022/09/05 06:34:46;;;;;;;;;;;24.50;42.70;;;;;;5114185;28;19915;-60
2022/09/05 06:37:32;;;;;;;;;;;24.50;42.70;;;;;;5111300;28;19919;-60
2022/09/05 06:40:16;;;;;;;;;;;24.50;42.80;;;;;;5094167;28;20422;-60
2022/09/05 06:42:41;;;;;;;;;;;24.50;42.70;;;;;;5099931;28;19907;-59
2022/09/05 06:45:20;;;;;;;;;;;24.50;42.80;;;;;;5114839;28;20388;-59
2022/09/05 06:47:45;;;;;;;;;;;24.60;43.00;;;;;;5114923;28;19912;-59
2022/09/05 06:50:11;;;;;;;;;;;24.50;42.90;;;;;;5114565;28;19908;-59
2022/09/05 06:52:39;;;;;;;;;;;24.60;42.80;;;;;;5114173;28;19931;-59
2022/09/05 06:55:08;;;;;;;;;;;24.50;43.50;;;;;;5093984;28;20264;-59
2022/09/05 06:57:43;;;;;;;;;;;24.50;42.90;;;;;;5095956;28;20492;-59
2022/09/05 07:00:19;;;;;;;;;;;24.50;43.00;;;;;;5109190;28;19916;-59
2022/09/05 07:02:55;;;;;;;;;;;24.50;43.20;;;;;;5077906;28;19924;-59
2022/09/05 07:05:23;;;;;;;;;;;24.50;43.30;;;;;;5099672;28;19920;-59
2022/09/05 07:07:53;;;;;;;;;;;24.50;43.30;;;;;;5113177;28;19911;-59
2022/09/05 07:10:28;;;;;;;;;;;24.50;43.30;;;;;;5112378;28;19907;-59
2022/09/05 07:12:56;;;;;;;;;;;24.50;43.20;;;;;;5088683;28;19916;-59
2022/09/05 07:15:25;;;;;;;;;;;24.50;43.30;;;;;;5087224;28;20013;-59
2022/09/05 07:17:53;;;;;;;;;;;24.50;43.40;;;;;;5111626;28;20291;-59
2022/09/05 07:20:20;;;;;;;;;;;24.50;43.40;;;;;;5112515;28;19926;-59
2022/09/05 07:22:51;;;;;;;;;;;24.50;43.50;;;;;;5088680;28;19911;-59
2022/09/05 07:25:17;;;;;;;;;;;24.50;43.40;;;;;;5108341;28;19912;-59
2022/09/05 07:27:49;;;;;;;;;;;24.50;43.40;;;;;;5082083;28;20428;-59
2022/09/05 07:30:16;;;;;;;;;;;24.50;43.50;;;;;;5107341;27;19922;-59
2022/09/05 07:32:43;;;;;;;;;;;24.50;43.50;;;;;;5111426;28;19911;-60
2022/09/05 07:35:22;;;;;;;;;;;24.50;43.60;;;;;;5095122;28;19907;-59
2022/09/05 07:37:51;;;;;;;;;;;24.50;43.60;;;;;;5109805;28;19918;-59
2022/09/05 07:40:17;;;;;;;;;;;24.50;43.60;;;;;;5091126;28;19912;-59
2022/09/05 07:42:44;;;;;;;;;;;24.50;43.60;;;;;;5104752;28;19919;-59
2022/09/05 07:45:13;;;;;;;;;;;24.50;43.70;;;;;;5094785;28;19912;-60
2022/09/05 07:47:40;;;;;;;;;;;24.50;43.70;;;;;;5095084;28;20260;-59
2022/09/05 07:50:06;;;;;;;;;;;24.50;43.90;;;;;;5113111;28;19943;-59
2022/09/05 07:52:32;;;;;;;;;;;24.60;43.80;;;;;;5094471;28;19928;-59
2022/09/05 07:55:07;;;;;;;;;;;24.60;43.80;;;;;;5094448;28;19908;-59
2022/09/05 07:57:35;;;;;;;;;;;24.50;43.90;;;;;;5093361;28;20326;-59
2022/09/05 08:00:10;;;;;;;;;;;24.50;43.80;;;;;;5107067;28;19969;-59
2022/09/05 08:02:42;;;;;;;;;;;24.60;43.80;;;;;;5118115;28;20333;-59
2022/09/05 08:05:08;;;;;;;;;;;24.70;43.80;;;;;;5111909;28;19911;-59
2022/09/05 08:07:36;;;;;;;;;;;24.70;43.70;;;;;;5108635;28;19911;-59
2022/09/05 08:10:22;;;;;;;;;;;24.60;44.00;;;;;;5080956;28;20563;-59
2022/09/05 08:12:49;;;;;;;;;;;24.60;44.10;;;;;;5091106;28;20000;-59
2022/09/05 08:15:18;;;;;;;;;;;24.70;43.90;;;;;;5082499;28;20379;-59
2022/09/05 08:18:02;;;;;;;;;;;24.60;44.00;;;;;;5090751;28;20329;-59
2022/09/05 08:20:46;;;;;;;;;;;24.50;44.20;;;;;;5108067;28;19976;-59
2022/09/05 08:23:23;;;;;;;;;;;24.50;44.20;;;;;;5112178;28;20355;-59
2022/09/05 08:25:54;;;;;;;;;;;24.60;44.40;;;;;;5107297;28;20473;-60
2022/09/05 08:28:21;;;;;;;;;;;24.50;44.30;;;;;;5111549;28;19961;-59
2022/09/05 08:31:07;;;;;;;;;;;24.60;44.40;;;;;;5094362;28;19907;-59
2022/09/05 08:33:33;;;;;;;;;;;24.60;44.40;;;;;;5108572;28;19975;-59
2022/09/05 08:36:01;;;;;;;;;;;24.50;44.90;;;;;;5111136;28;20032;-59
2022/09/05 08:38:28;;;;;;;;;;;24.40;44.90;;;;;;5098683;28;20292;-59
2022/09/05 08:40:58;;;;;;;;;;;24.40;45.20;;;;;;5093884;28;20328;-60
2022/09/05 08:43:26;;;;;;;;;;;24.40;45.20;;;;;;5092174;28;19943;-59
2022/09/05 08:45:56;;;;;;;;;;;24.40;45.40;;;;;;5112301;28;19908;-60
2022/09/05 08:48:40;;;;;;;;;;;24.40;45.50;;;;;;5093982;28;20379;-59
2022/09/05 08:51:16;;;;;;;;;;;24.30;45.50;;;;;;5111826;28;19915;-60
2022/09/05 08:54:00;;;;;;;;;;;24.30;45.80;;;;;;5081267;28;19908;-59
2022/09/05 08:56:30;;;;;;;;;;;24.30;45.70;;;;;;5093368;28;19915;-59
2022/09/05 08:59:01;;;;;;;;;;;24.40;45.70;;;;;;5093546;28;19916;-59
2022/09/05 09:02:02;;;;;;;;;;;24.40;45.80;;;;;;5093722;28;19943;-59
2022/09/05 09:04:34;;;;;;;;;;;24.50;45.90;;;;;;5009278;28;19919;-59
2022/09/05 09:07:15;;;;;;;;;;;24.50;46.10;;;;;;5077171;28;19911;-60
2022/09/05 09:09:50;;;;;;;;;;;24.50;46.00;;;;;;5105158;28;19908;-59
2022/09/05 09:12:54;;;;;;;;;;;24.50;45.80;;;;;;5092679;28;19942;-59
2022/09/05 09:15:23;;;;;;;;;;;24.60;46.20;;;;;;5006747;28;19946;-60
2022/09/05 09:17:49;;;;;;;;;;;24.50;46.10;;;;;;5009301;28;19913;-60
2022/09/05 09:20:14;;;;;;;;;;;24.60;46.20;;;;;;5058826;28;19941;-60
2022/09/05 09:22:43;;;;;;;;;;;24.60;46.30;;;;;;5111396;28;20019;-59
2022/09/05 09:25:15;;;;;;;;;;;24.60;46.10;;;;;;5111582;28;19911;-61
2022/09/05 09:27:56;;;;;;;;;;;24.60;46.30;;;;;;5090855;28;19923;-59
2022/09/05 09:30:21;;;;;;;;;;;24.70;46.50;;;;;;5110207;28;20233;-60
2022/09/05 09:32:48;;;;;;;;;;;24.70;46.50;;;;;;5092611;28;20011;-60
2022/09/05 09:35:23;;;;;;;;;;;24.70;46.40;;;;;;5109612;28;19958;-59
2022/09/05 09:37:49;;;;;;;;;;;24.70;46.20;;;;;;5104479;27;19912;-60
2022/09/05 09:40:34;;;;;;;;;;;24.70;46.50;;;;;;5109808;28;19927;-59
2022/09/05 09:43:19;;;;;;;;;;;24.70;46.50;;;;;;5097543;28;20094;-59
2022/09/05 09:45:44;;;;;;;;;;;24.70;46.50;;;;;;5107244;28;19918;-59
2022/09/05 09:48:19;;;;;;;;;;;24.80;46.50;;;;;;5110616;28;19924;-59
2022/09/05 09:50:50;;;;;;;;;;;24.80;46.60;;;;;;5115359;28;19916;-59
2022/09/05 09:53:22;;;;;;;;;;;24.80;46.70;;;;;;5110673;28;19918;-59
2022/09/05 09:55:50;;;;;;;;;;;24.80;46.80;;;;;;5093604;28;19918;-59
2022/09/05 09:58:23;;;;;;;;;;;24.80;46.90;;;;;;5109363;28;19927;-59
2022/09/05 10:01:00;;;;;;;;;;;24.80;46.90;;;;;;5085699;28;19965;-59
2022/09/05 10:03:36;;;;;;;;;;;24.80;47.00;;;;;;5115578;28;20363;-60
2022/09/05 10:06:24;;;;;;;;;;;24.90;47.00;;;;;;5096366;28;19908;-59
2022/09/05 10:08:58;;;;;;;;;;;24.90;47.00;;;;;;5109006;28;19994;-60
2022/09/05 10:11:37;;;;;;;;;;;24.90;47.10;;;;;;5091747;28;19918;-60
2022/09/05 10:14:22;;;;;;;;;;;24.90;47.10;;;;;;5108391;28;19954;-59
2022/09/05 10:17:06;;;;;;;;;;;24.90;47.00;;;;;;5078564;28;19981;-59
2022/09/05 10:19:39;;;;;;;;;;;24.90;47.20;;;;;;5110222;28;19972;-58
2022/09/05 10:22:07;;;;;;;;;;;24.80;47.90;;;;;;5095189;28;19919;-59
2022/09/05 10:24:36;;;;;;;;;;;24.70;47.40;;;;;;5111849;27;19987;-58
2022/09/05 10:27:07;;;;;;;;;;;24.70;47.40;;;;;;5112251;28;20244;-60
2022/09/05 10:29:45;;;;;;;;;;;24.70;47.60;;;;;;5093236;28;19919;-59
2022/09/05 10:32:12;;;;;;;;;;;24.70;47.80;;;;;;5108659;28;19933;-59
2022/09/05 10:34:44;;;;;;;;;;;24.70;47.70;;;;;;5112706;28;19919;-59
2022/09/05 10:37:11;;;;;;;;;;;24.70;47.80;;;;;;5102870;28;19998;-60
2022/09/05 10:39:37;;;;;;;;;;;24.70;47.90;;;;;;5106827;28;19920;-59
2022/09/05 10:42:09;;;;;;;;;;;24.60;47.70;;;;;;5091669;28;20323;-59
2022/09/05 10:44:39;;;;;;;;;;;24.70;47.80;;;;;;5114693;28;19922;-59
2022/09/05 10:47:14;;;;;;;;;;;24.60;47.70;;;;;;5114437;28;20364;-59
2022/09/05 10:49:41;;;;;;;;;;;24.70;47.80;;;;;;5114342;28;19911;-59
2022/09/05 10:52:06;;;;;;;;;;;24.70;47.80;;;;;;5092666;28;19999;-59
2022/09/05 10:55:07;;;;;;;;;;;24.60;47.90;;;;;;5114400;28;20012;-61
2022/09/05 10:57:38;;;;;;;;;;;24.60;48.00;;;;;;5032346;28;19913;-59
2022/09/05 11:00:08;;;;;;;;;;;24.60;48.00;;;;;;5084526;28;20397;-61
2022/09/05 11:02:35;;;;;;;;;;;24.60;47.90;;;;;;5094274;28;20367;-59
2022/09/05 11:05:18;;;;;;;;;;;24.60;47.90;;;;;;5105536;28;19908;-60
2022/09/05 11:07:53;;;;;;;;;;;24.60;47.90;;;;;;5095574;28;19963;-59
2022/09/05 11:10:27;;;;;;;;;;;24.60;47.90;;;;;;5095755;28;20006;-59
2022/09/05 11:12:55;;;;;;;;;;;24.60;47.90;;;;;;5110657;28;19926;-60
2022/09/05 11:15:39;;;;;;;;;;;24.60;47.90;;;;;;5110659;28;20147;-59
2022/09/05 11:18:08;;;;;;;;;;;24.60;47.90;;;;;;5111210;28;19919;-60
2022/09/05 11:20:42;;;;;;;;;;;24.70;47.70;;;;;;5111137;28;19968;-59
2022/09/05 11:23:14;;;;;;;;;;;24.70;47.60;;;;;;5114039;28;19915;-59
2022/09/05 11:25:39;;;;;;;;;;;24.70;47.60;;;;;;5105211;28;19912;-59
2022/09/05 11:28:08;;;;;;;;;;;24.70;47.60;;;;;;5075911;28;20260;-59
2022/09/05 11:30:38;;;;;;;;;;;24.70;47.50;;;;;;5075600;28;19908;-59
2022/09/05 11:33:22;;;;;;;;;;;24.70;47.50;;;;;;5110543;27;19935;-59
2022/09/05 11:35:53;;;;;;;;;;;24.70;47.60;;;;;;5107175;28;20014;-59
2022/09/05 11:38:39;;;;;;;;;;;24.70;47.60;;;;;;5112890;28;20056;-60
2022/09/05 11:41:20;;;;;;;;;;;24.70;47.60;;;;;;5061020;28;19960;-60
2022/09/05 11:44:07;;;;;;;;;;;24.60;47.50;;;;;;5098766;27;20303;-59
2022/09/05 11:46:39;;;;;;;;;;;24.60;47.60;;;;;;5099007;28;19947;-60
2022/09/05 11:49:13;;;;;;;;;;;24.60;47.60;;;;;;5093484;28;19915;-60
2022/09/05 11:51:57;;;;;;;;;;;24.70;47.70;;;;;;5109945;28;20486;-59
2022/09/05 11:54:32;;;;;;;;;;;24.60;47.60;;;;;;5097534;28;19912;-59
2022/09/05 11:57:00;;;;;;;;;;;24.60;47.60;;;;;;5104367;28;19912;-59
2022/09/05 11:59:31;;;;;;;;;;;24.70;47.60;;;;;;5102505;28;19966;-59
2022/09/05 12:01:57;;;;;;;;;;;24.70;47.40;;;;;;5111570;28;19947;-60
2022/09/05 12:04:41;;;;;;;;;;;24.70;47.40;;;;;;5112926;28;19966;-59
2022/09/05 12:07:08;;;;;;;;;;;24.70;47.40;;;;;;5112574;28;19908;-59
2022/09/05 12:09:34;;;;;;;;;;;24.70;47.50;;;;;;5088934;28;20391;-60
2022/09/05 12:12:22;;;;;;;;;;;24.70;47.60;;;;;;5112731;28;19918;-59
2022/09/05 12:14:57;;;;;;;;;;;24.60;47.50;;;;;;5103235;28;19935;-59
2022/09/05 12:17:31;;;;;;;;;;;24.60;47.50;;;;;;5113622;27;20002;-59
2022/09/05 12:19:58;;;;;;;;;;;24.70;47.40;;;;;;5104466;28;20058;-59
2022/09/05 12:22:34;;;;;;;;;;;24.70;47.40;;;;;;5108792;28;19962;-59
2022/09/05 12:25:19;;;;;;;;;;;24.70;47.30;;;;;;5107502;28;19912;-60
2022/09/05 12:27:46;;;;;;;;;;;24.70;47.30;;;;;;5104919;28;20328;-60
2022/09/05 12:30:12;;;;;;;;;;;24.70;47.30;;;;;;5105782;28;20017;-60
2022/09/05 12:32:57;;;;;;;;;;;24.80;47.20;;;;;;5106908;28;19914;-59
2022/09/05 12:35:31;;;;;;;;;;;24.80;47.20;;;;;;5100791;28;20065;-60
2022/09/05 12:38:15;;;;;;;;;;;24.80;47.20;;;;;;5107085;28;19919;-60
2022/09/05 12:40:43;;;;;;;;;;;24.80;47.20;;;;;;5108730;28;19908;-59
2022/09/05 12:43:10;;;;;;;;;;;24.80;47.20;;;;;;5106217;28;19912;-60
2022/09/05 12:45:46;;;;;;;;;;;24.80;47.20;;;;;;5108845;28;20122;-60
2022/09/05 12:48:17;;;;;;;;;;;24.80;47.00;;;;;;5108572;28;20159;-60
2022/09/05 12:50:45;;;;;;;;;;;24.80;47.00;;;;;;5106709;28;20037;-60
2022/09/05 12:53:17;;;;;;;;;;;24.90;47.00;;;;;;5108359;28;19908;-60
2022/09/05 12:55:51;;;;;;;;;;;24.90;47.00;;;;;;5108264;28;19947;-59
2022/09/05 12:58:37;;;;;;;;;;;24.90;47.50;;;;;;5107640;28;20011;-60
2022/09/05 13:01:17;;;;;;;;;;;24.90;46.90;;;;;;5108093;28;19912;-60
2022/09/05 13:03:46;;;;;;;;;;;24.90;47.00;;;;;;5095478;28;19908;-60
2022/09/05 13:06:19;;;;;;;;;;;24.90;47.00;;;;;;5100917;28;19927;-60
2022/09/05 13:08:46;;;;;;;;;;;24.90;46.80;;;;;;5066129;28;19969;-59
2022/09/05 13:11:12;;;;;;;;;;;24.90;46.90;;;;;;5086024;28;20011;-59
2022/09/05 13:13:45;;;;;;;;;;;25.00;46.80;;;;;;5086620;28;20437;-60
2022/09/05 13:16:10;;;;;;;;;;;25.00;46.60;;;;;;5078630;28;19943;-59
2022/09/05 13:18:37;;;;;;;;;;;25.00;46.70;;;;;;5073062;28;19908;-60
2022/09/05 13:21:07;;;;;;;;;;;25.00;46.80;;;;;;5084928;28;20331;-60
2022/09/05 13:23:51;;;;;;;;;;;25.10;46.60;;;;;;5070042;28;20289;-60
2022/09/05 13:26:36;;;;;;;;;;;25.20;46.70;;;;;;5072626;28;19912;-60
2022/09/05 13:29:15;;;;;;;;;;;25.20;46.50;;;;;;5065275;28;19923;-60
2022/09/05 13:31:41;;;;;;;;;;;25.30;46.60;;;;;;5072740;28;19913;-60
2022/09/05 13:34:13;;;;;;;;;;;25.20;46.50;;;;;;5060432;28;20379;-60
2022/09/05 13:36:41;;;;;;;;;;;25.20;46.60;;;;;;5073549;28;19913;-60
2022/09/05 13:39:09;;;;;;;;;;;25.30;46.70;;;;;;5050767;28;19909;-59
2022/09/05 13:41:36;;;;;;;;;;;25.30;46.40;;;;;;5067299;28;20368;-60
2022/09/05 13:44:09;;;;;;;;;;;25.40;46.40;;;;;;5071627;28;19947;-60
2022/09/05 13:46:38;;;;;;;;;;;25.40;47.00;;;;;;5072384;28;19912;-60
2022/09/05 13:49:23;;;;;;;;;;;25.40;46.20;;;;;;5072464;28;19909;-60
2022/09/05 13:51:50;;;;;;;;;;;25.40;46.20;;;;;;5071323;28;19908;-60
2022/09/05 13:54:18;;;;;;;;;;;25.40;46.20;;;;;;5073338;28;19939;-60
2022/09/05 13:57:06;;;;;;;;;;;25.40;46.20;;;;;;5073687;28;20376;-59
2022/09/05 13:59:33;;;;;;;;;;;25.40;46.20;;;;;;5071667;28;19923;-60
2022/09/05 14:02:05;;;;;;;;;;;25.50;46.20;;;;;;5072204;28;19912;-60
2022/09/05 14:04:41;;;;;;;;;;;25.50;46.20;;;;;;5073448;28;20371;-59
2022/09/05 14:07:19;;;;;;;;;;;25.50;46.10;;;;;;5071918;28;19946;-60
2022/09/05 14:09:45;;;;;;;;;;;25.50;46.00;;;;;;5071634;28;20296;-60
2022/09/05 14:12:16;;;;;;;;;;;25.40;46.00;;;;;;5072858;28;19935;-60
2022/09/05 14:14:43;;;;;;;;;;;25.40;46.10;;;;;;5071498;28;19916;-59
2022/09/05 14:17:15;;;;;;;;;;;25.40;46.00;;;;;;5072000;28;19925;-59
2022/09/05 14:22:54;;;;;;;;;;;25.40;46.00;;;;;;5058199;28;20288;-59
2022/09/05 14:25:26;;;;;;;;;;;25.30;46.10;;;;;;5055158;28;19913;-60
2022/09/05 14:27:51;;;;;;;;;;;25.40;46.00;;;;;;5072081;28;20316;-59
2022/09/05 14:30:36;;;;;;;;;;;25.40;45.90;;;;;;5071876;28;19954;-60
2022/09/05 14:33:01;;;;;;;;;;;25.50;45.90;;;;;;5072114;28;19908;-60
2022/09/05 14:35:45;;;;;;;;;;;25.50;45.70;;;;;;5071717;28;19924;-60
2022/09/05 14:38:12;;;;;;;;;;;25.40;45.80;;;;;;5068829;28;19912;-60
2022/09/05 14:40:48;;;;;;;;;;;25.40;45.90;;;;;;5065468;28;19912;-59
2022/09/05 14:43:29;;;;;;;;;;;25.40;45.90;;;;;;5065364;28;19913;-60
2022/09/05 14:45:58;;;;;;;;;;;25.40;45.90;;;;;;5066311;28;19920;-60
2022/09/05 14:48:37;;;;;;;;;;;25.40;45.90;;;;;;5070365;28;20031;-60
2022/09/05 14:51:21;;;;;;;;;;;25.40;45.90;;;;;;5064671;28;19913;-60
2022/09/05 14:54:02;;;;;;;;;;;25.50;45.80;;;;;;5068838;28;20050;-60
2022/09/05 14:56:37;;;;;;;;;;;25.50;45.80;;;;;;5057481;28;19921;-60